createdAt,value
2022-12-28T00:00:20.496Z,2.60
2022-12-28T00:01:20.434Z,2.40
2022-12-28T00:02:20.471Z,2.40
2022-12-28T00:03:20.435Z,2.50
2022-12-28T00:04:20.374Z,2.60
2022-12-28T00:05:20.376Z,2.60
2022-12-28T00:06:20.372Z,2.40
2022-12-28T00:07:20.342Z,2.50
2022-12-28T00:08:20.335Z,2.30
2022-12-28T00:09:20.323Z,2.40
2022-12-28T00:10:20.304Z,2.30
2022-12-28T00:11:26.512Z,2.60
2022-12-28T00:12:20.291Z,2.50
2022-12-28T00:13:20.276Z,2.50
2022-12-28T00:14:20.265Z,2.10
2022-12-28T00:15:20.257Z,2.10
2022-12-28T00:16:20.290Z,2.50
2022-12-28T00:17:20.234Z,2.40
2022-12-28T00:18:20.220Z,2.60
2022-12-28T00:19:20.223Z,2.70
2022-12-28T00:20:20.207Z,2.60
2022-12-28T00:21:20.218Z,2.50
2022-12-28T00:22:20.172Z,2.50
2022-12-28T00:23:20.171Z,2.60
2022-12-28T00:24:20.154Z,2.20
2022-12-28T00:25:20.142Z,2.20
2022-12-28T00:26:20.161Z,2.30
2022-12-28T00:27:20.122Z,2.40
2022-12-28T00:28:20.111Z,2.40
2022-12-28T00:29:20.103Z,2.20
2022-12-28T00:30:20.084Z,2.10
2022-12-28T00:31:20.144Z,2.40
2022-12-28T00:32:20.061Z,2.40
2022-12-28T00:33:20.058Z,2.70
2022-12-28T00:34:20.041Z,2.30
2022-12-28T00:35:20.043Z,2.30
2022-12-28T00:36:20.064Z,2.40
2022-12-28T00:37:20.008Z,2.30
2022-12-28T00:38:19.997Z,2.30
2022-12-28T00:39:19.996Z,2.40
2022-12-28T00:40:23.946Z,2.40
2022-12-28T00:41:19.992Z,2.30
2022-12-28T00:42:19.956Z,2.40
2022-12-28T00:43:19.952Z,2.60
2022-12-28T00:44:19.944Z,2.40
2022-12-28T00:45:19.922Z,2.60
2022-12-28T00:46:19.942Z,2.40
2022-12-28T00:47:19.898Z,2.10
2022-12-28T00:48:19.900Z,2.80
2022-12-28T00:49:19.895Z,2.10
2022-12-28T00:50:19.870Z,2.40
2022-12-28T00:51:19.875Z,2.40
2022-12-28T00:52:19.847Z,2.30
2022-12-28T00:53:19.833Z,2.40
2022-12-28T00:54:19.825Z,2.50
2022-12-28T00:55:19.817Z,2.40
2022-12-28T00:56:19.829Z,2.60
2022-12-28T00:57:19.785Z,2.30
2022-12-28T00:58:19.788Z,2.50
2022-12-28T00:59:19.777Z,2.20
2022-12-28T01:00:19.763Z,2.70
2022-12-28T01:01:19.986Z,2.60
2022-12-28T01:02:19.790Z,2.20
2022-12-28T01:03:19.742Z,2.60
2022-12-28T01:04:19.719Z,2.70
2022-12-28T01:05:19.710Z,2.60
2022-12-28T01:06:19.718Z,2.60
2022-12-28T01:07:19.683Z,2.40
2022-12-28T01:08:19.676Z,2.60
2022-12-28T01:09:19.660Z,2.50
2022-12-28T01:10:19.653Z,3.00
2022-12-28T01:11:19.653Z,2.90
2022-12-28T01:12:19.625Z,2.80
2022-12-28T01:13:19.609Z,2.50
2022-12-28T01:14:19.614Z,2.80
2022-12-28T01:15:19.601Z,2.50
2022-12-28T01:16:19.628Z,2.70
2022-12-28T01:17:19.565Z,2.80
2022-12-28T01:18:19.562Z,2.40
2022-12-28T01:19:19.540Z,2.90
2022-12-28T01:20:19.545Z,2.60
2022-12-28T01:21:19.548Z,2.60
2022-12-28T01:22:19.518Z,2.80
2022-12-28T01:23:19.498Z,2.50
2022-12-28T01:24:19.493Z,2.70
2022-12-28T01:25:19.483Z,2.80
2022-12-28T01:26:19.495Z,2.80
2022-12-28T01:27:19.457Z,2.80
2022-12-28T01:28:19.448Z,2.50
2022-12-28T01:29:19.439Z,2.50
2022-12-28T01:30:19.424Z,2.50
2022-12-28T01:31:19.473Z,2.80
2022-12-28T01:32:19.407Z,2.30
2022-12-28T01:33:19.389Z,2.50
2022-12-28T01:34:19.385Z,2.70
2022-12-28T01:35:19.372Z,2.40
2022-12-28T01:36:19.386Z,2.80
2022-12-28T01:37:19.343Z,3.20
2022-12-28T01:38:19.339Z,2.70
2022-12-28T01:39:19.330Z,2.60
2022-12-28T01:40:19.316Z,2.60
2022-12-28T01:41:19.351Z,2.70
2022-12-28T01:42:19.294Z,2.80
2022-12-28T01:43:29.514Z,2.90
2022-12-28T01:44:19.280Z,3.10
2022-12-28T01:45:19.281Z,2.70
2022-12-28T01:46:19.288Z,2.90
2022-12-28T01:47:19.237Z,2.90
2022-12-28T01:48:19.236Z,3.00
2022-12-28T01:49:19.221Z,3.00
2022-12-28T01:50:19.210Z,2.70
2022-12-28T01:51:19.215Z,2.80
2022-12-28T01:52:19.185Z,2.70
2022-12-28T01:53:19.165Z,2.90
2022-12-28T01:54:19.169Z,2.70
2022-12-28T01:55:19.167Z,2.90
2022-12-28T01:56:19.148Z,2.80
2022-12-28T01:57:19.123Z,3.30
2022-12-28T01:58:19.119Z,2.80
2022-12-28T01:59:19.106Z,2.70
2022-12-28T02:00:19.124Z,2.60
2022-12-28T02:01:19.260Z,2.60
2022-12-28T02:02:19.332Z,2.80
2022-12-28T02:03:19.117Z,2.70
2022-12-28T02:04:19.051Z,3.20
2022-12-28T02:05:19.055Z,2.70
2022-12-28T02:06:19.027Z,2.60
2022-12-28T02:07:19.017Z,2.70
2022-12-28T02:08:19.006Z,2.80
2022-12-28T02:09:19.007Z,3.00
2022-12-28T02:10:40.984Z,2.90
2022-12-28T02:11:19.011Z,2.80
2022-12-28T02:12:18.959Z,3.00
2022-12-28T02:13:18.947Z,2.90
2022-12-28T02:14:18.942Z,2.80
2022-12-28T02:15:23.066Z,2.70
2022-12-28T02:16:19.035Z,2.70
2022-12-28T02:17:18.897Z,3.00
2022-12-28T02:18:18.924Z,3.00
2022-12-28T02:19:18.908Z,2.90
2022-12-28T02:20:18.871Z,3.00
2022-12-28T02:21:18.905Z,3.40
2022-12-28T02:22:18.851Z,2.90
2022-12-28T02:23:18.838Z,3.00
2022-12-28T02:24:18.851Z,3.10
2022-12-28T02:25:18.813Z,3.00
2022-12-28T02:26:18.843Z,2.80
2022-12-28T02:27:18.790Z,3.10
2022-12-28T02:28:18.781Z,3.00
2022-12-28T02:29:18.771Z,3.10
2022-12-28T02:30:18.763Z,3.10
2022-12-28T02:31:18.782Z,2.80
2022-12-28T02:32:18.763Z,2.70
2022-12-28T02:33:18.764Z,3.20
2022-12-28T02:34:18.717Z,3.30
2022-12-28T02:35:18.708Z,2.90
2022-12-28T02:36:19.007Z,2.80
2022-12-28T02:37:18.705Z,3.00
2022-12-28T02:38:18.672Z,3.00
2022-12-28T02:39:18.665Z,2.90
2022-12-28T02:40:18.659Z,2.90
2022-12-28T02:41:18.632Z,2.90
2022-12-28T02:42:18.641Z,3.00
2022-12-28T02:43:18.633Z,2.60
2022-12-28T02:44:18.607Z,2.60
2022-12-28T02:45:18.610Z,3.20
2022-12-28T02:46:18.655Z,2.80
2022-12-28T02:47:18.581Z,3.00
2022-12-28T02:48:18.588Z,2.90
2022-12-28T02:49:18.558Z,3.10
2022-12-28T02:50:18.539Z,2.90
2022-12-28T02:51:18.539Z,3.10
2022-12-28T02:52:18.555Z,3.20
2022-12-28T02:53:18.542Z,3.40
2022-12-28T02:54:18.505Z,3.20
2022-12-28T02:55:18.483Z,2.60
2022-12-28T02:56:18.489Z,2.90
2022-12-28T02:57:18.462Z,3.20
2022-12-28T02:58:18.450Z,2.90
2022-12-28T02:59:18.470Z,3.20
2022-12-28T03:00:18.428Z,2.90
2022-12-28T03:01:18.534Z,3.20
2022-12-28T03:02:18.590Z,3.10
2022-12-28T03:03:18.425Z,2.90
2022-12-28T03:04:18.382Z,3.30
2022-12-28T03:05:18.403Z,3.10
2022-12-28T03:06:19.793Z,3.20
2022-12-28T03:07:18.412Z,3.40
2022-12-28T03:08:18.349Z,2.90
2022-12-28T03:09:18.338Z,3.20
2022-12-28T03:10:18.322Z,3.00
2022-12-28T03:11:18.353Z,3.10
2022-12-28T03:12:18.294Z,3.10
2022-12-28T03:13:18.295Z,3.00
2022-12-28T03:14:18.276Z,3.20
2022-12-28T03:15:18.285Z,3.00
2022-12-28T03:16:18.286Z,3.30
2022-12-28T03:17:18.286Z,3.30
2022-12-28T03:18:18.238Z,2.90
2022-12-28T03:19:18.220Z,3.00
2022-12-28T03:20:18.214Z,3.00
2022-12-28T03:21:18.214Z,2.80
2022-12-28T03:22:18.189Z,3.20
2022-12-28T03:23:18.201Z,3.00
2022-12-28T03:24:18.164Z,3.00
2022-12-28T03:25:18.155Z,2.70
2022-12-28T03:26:18.152Z,2.90
2022-12-28T03:27:18.133Z,3.20
2022-12-28T03:28:18.119Z,2.80
2022-12-28T03:29:18.138Z,2.80
2022-12-28T03:30:18.102Z,3.00
2022-12-28T03:31:18.112Z,2.90
2022-12-28T03:32:18.075Z,2.90
2022-12-28T03:33:18.064Z,3.00
2022-12-28T03:34:18.054Z,3.00
2022-12-28T03:35:18.067Z,2.70
2022-12-28T03:36:18.031Z,3.00
2022-12-28T03:37:18.039Z,2.80
2022-12-28T03:38:18.015Z,2.70
2022-12-28T03:39:18.000Z,3.10
2022-12-28T03:40:18.015Z,2.90
2022-12-28T03:41:17.993Z,3.00
2022-12-28T03:42:17.961Z,3.10
2022-12-28T03:43:17.949Z,2.90
2022-12-28T03:44:17.942Z,2.90
2022-12-28T03:45:45.919Z,2.90
2022-12-28T03:46:18.026Z,2.90
2022-12-28T03:47:17.910Z,3.10
2022-12-28T03:48:17.904Z,3.10
2022-12-28T03:49:17.887Z,3.20
2022-12-28T03:50:17.870Z,2.90
2022-12-28T03:51:17.892Z,2.90
2022-12-28T03:52:17.849Z,3.20
2022-12-28T03:53:17.846Z,3.40
2022-12-28T03:54:17.831Z,3.50
2022-12-28T03:55:17.836Z,3.80
2022-12-28T03:56:17.809Z,3.50
2022-12-28T03:57:17.827Z,3.30
2022-12-28T03:58:17.803Z,3.20
2022-12-28T03:59:17.777Z,3.60
2022-12-28T04:00:17.763Z,3.50
2022-12-28T04:01:17.874Z,3.30
2022-12-28T04:02:17.897Z,3.60
2022-12-28T04:03:17.797Z,4.10
2022-12-28T04:04:17.745Z,3.60
2022-12-28T04:05:17.710Z,3.80
2022-12-28T04:06:17.704Z,4.10
2022-12-28T04:07:17.702Z,3.80
2022-12-28T04:08:17.683Z,3.90
2022-12-28T04:09:17.699Z,4.00
2022-12-28T04:10:17.649Z,4.20
2022-12-28T04:11:17.643Z,4.50
2022-12-28T04:12:17.627Z,4.40
2022-12-28T04:13:17.628Z,4.00
2022-12-28T04:14:17.609Z,4.30
2022-12-28T04:15:17.625Z,5.00
2022-12-28T04:16:17.621Z,5.10
2022-12-28T04:17:17.584Z,4.80
2022-12-28T04:18:17.581Z,4.80
2022-12-28T04:19:17.558Z,5.10
2022-12-28T04:20:17.542Z,5.00
2022-12-28T04:21:17.562Z,5.50
2022-12-28T04:22:17.519Z,5.00
2022-12-28T04:23:17.513Z,5.60
2022-12-28T04:24:17.492Z,5.30
2022-12-28T04:25:17.492Z,5.90
2022-12-28T04:26:17.485Z,5.80
2022-12-28T04:27:17.505Z,5.70
2022-12-28T04:28:17.453Z,6.40
2022-12-28T04:29:17.443Z,7.00
2022-12-28T04:30:17.430Z,6.90
2022-12-28T04:31:17.494Z,7.10
2022-12-28T04:32:17.421Z,6.80
2022-12-28T04:33:17.435Z,7.10
2022-12-28T04:34:17.386Z,7.30
2022-12-28T04:35:17.381Z,7.80
2022-12-28T04:36:17.366Z,7.00
2022-12-28T04:37:17.362Z,7.60
2022-12-28T04:38:17.383Z,7.20
2022-12-28T04:39:17.341Z,7.70
2022-12-28T04:40:17.315Z,8.10
2022-12-28T04:41:17.308Z,8.10
2022-12-28T04:42:17.299Z,8.40
2022-12-28T04:43:17.287Z,8.30
2022-12-28T04:44:17.312Z,8.70
2022-12-28T04:45:21.928Z,8.00
2022-12-28T04:46:17.392Z,8.70
2022-12-28T04:47:17.239Z,8.90
2022-12-28T04:48:17.231Z,8.90
2022-12-28T04:49:17.222Z,8.80
2022-12-28T04:50:17.249Z,9.10
2022-12-28T04:51:17.200Z,8.40
2022-12-28T04:52:17.220Z,8.80
2022-12-28T04:53:17.171Z,8.80
2022-12-28T04:54:17.168Z,8.70
2022-12-28T04:55:32.624Z,8.30
2022-12-28T04:56:17.168Z,9.50
2022-12-28T04:57:17.130Z,8.40
2022-12-28T04:58:17.121Z,9.70
2022-12-28T04:59:17.105Z,9.50
2022-12-28T05:00:17.099Z,9.10
2022-12-28T05:01:17.235Z,9.50
2022-12-28T05:02:17.227Z,9.40
2022-12-28T05:03:17.068Z,9.60
2022-12-28T05:04:17.055Z,9.70
2022-12-28T05:05:17.046Z,9.70
2022-12-28T05:06:17.056Z,9.40
2022-12-28T05:07:17.049Z,9.60
2022-12-28T05:08:17.012Z,9.60
2022-12-28T05:09:16.999Z,10.30
2022-12-28T05:10:16.986Z,10.10
2022-12-28T05:11:16.975Z,9.60
2022-12-28T05:12:16.978Z,10.00
2022-12-28T05:13:16.981Z,9.60
2022-12-28T05:14:16.953Z,10.20
2022-12-28T05:15:16.928Z,10.80
2022-12-28T05:16:16.958Z,10.00
2022-12-28T05:17:16.905Z,10.30
2022-12-28T05:18:16.930Z,10.60
2022-12-28T05:19:16.912Z,9.70
2022-12-28T05:20:16.895Z,10.00
2022-12-28T05:21:16.862Z,10.30
2022-12-28T05:22:16.862Z,9.40
2022-12-28T05:23:16.852Z,9.60
2022-12-28T05:24:16.861Z,9.30
2022-12-28T05:25:16.823Z,9.40
2022-12-28T05:26:16.811Z,10.10
2022-12-28T05:27:16.815Z,10.20
2022-12-28T05:28:16.798Z,10.60
2022-12-28T05:29:16.793Z,9.60
2022-12-28T05:30:16.767Z,10.40
2022-12-28T05:31:16.814Z,10.50
2022-12-28T05:32:16.750Z,10.40
2022-12-28T05:33:16.731Z,10.20
2022-12-28T05:34:16.744Z,10.50
2022-12-28T05:35:16.715Z,10.60
2022-12-28T05:36:16.701Z,10.40
2022-12-28T05:37:21.814Z,10.40
2022-12-28T05:38:16.683Z,11.10
2022-12-28T05:39:16.772Z,11.40
2022-12-28T05:40:16.658Z,11.30
2022-12-28T05:41:16.638Z,11.30
2022-12-28T05:42:16.639Z,11.20
2022-12-28T05:43:16.623Z,10.70
2022-12-28T05:44:16.639Z,11.20
2022-12-28T05:45:16.606Z,11.70
2022-12-28T05:46:16.748Z,13.10
2022-12-28T05:47:16.575Z,12.30
2022-12-28T05:48:16.586Z,13.00
2022-12-28T05:49:16.584Z,13.00
2022-12-28T05:50:16.554Z,12.60
2022-12-28T05:51:16.528Z,12.10
2022-12-28T05:52:16.516Z,12.70
2022-12-28T05:53:16.510Z,12.60
2022-12-28T05:54:16.561Z,12.40
2022-12-28T05:55:16.489Z,13.00
2022-12-28T05:56:16.483Z,12.40
2022-12-28T05:57:16.475Z,13.10
2022-12-28T05:58:16.449Z,13.30
2022-12-28T05:59:16.481Z,12.60
2022-12-28T06:00:16.429Z,12.60
2022-12-28T06:01:16.499Z,13.00
2022-12-28T06:02:20.332Z,14.00
2022-12-28T06:03:16.506Z,13.70
2022-12-28T06:04:16.404Z,13.80
2022-12-28T06:05:16.374Z,13.90
2022-12-28T06:06:16.381Z,14.70
2022-12-28T06:07:16.360Z,13.80
2022-12-28T06:08:21.061Z,14.60
2022-12-28T06:09:16.361Z,13.60
2022-12-28T06:10:16.316Z,14.60
2022-12-28T06:11:16.308Z,14.00
2022-12-28T06:12:16.311Z,14.80
2022-12-28T06:13:16.287Z,14.90
2022-12-28T06:14:16.277Z,14.80
2022-12-28T06:15:16.304Z,14.20
2022-12-28T06:16:16.302Z,14.80
2022-12-28T06:17:16.284Z,14.70
2022-12-28T06:18:16.236Z,14.90
2022-12-28T06:19:16.218Z,15.10
2022-12-28T06:20:16.212Z,16.40
2022-12-28T06:21:16.231Z,17.30
2022-12-28T06:22:16.188Z,15.00
2022-12-28T06:23:16.177Z,16.70
2022-12-28T06:24:16.159Z,14.60
2022-12-28T06:25:16.152Z,15.50
2022-12-28T06:26:16.133Z,16.20
2022-12-28T06:27:16.155Z,15.40
2022-12-28T06:28:16.114Z,15.70
2022-12-28T06:29:16.107Z,16.30
2022-12-28T06:30:16.100Z,16.70
2022-12-28T06:31:16.128Z,16.30
2022-12-28T06:32:16.097Z,17.00
2022-12-28T06:33:16.071Z,17.10
2022-12-28T06:34:16.065Z,16.40
2022-12-28T06:35:16.039Z,16.60
2022-12-28T06:36:19.889Z,16.90
2022-12-28T06:37:16.044Z,17.20
2022-12-28T06:38:16.005Z,16.30
2022-12-28T06:39:15.991Z,16.40
2022-12-28T06:40:15.981Z,16.40
2022-12-28T06:41:15.966Z,17.70
2022-12-28T06:42:15.982Z,17.70
2022-12-28T06:43:15.956Z,17.80
2022-12-28T06:44:15.939Z,17.90
2022-12-28T06:45:15.927Z,18.70
2022-12-28T06:46:15.982Z,17.90
2022-12-28T06:47:15.930Z,18.50
2022-12-28T06:48:15.892Z,17.20
2022-12-28T06:49:15.888Z,18.80
2022-12-28T06:50:15.871Z,17.80
2022-12-28T06:51:15.873Z,18.40
2022-12-28T06:52:15.876Z,17.80
2022-12-28T06:53:15.832Z,19.10
2022-12-28T06:54:15.826Z,18.80
2022-12-28T06:55:15.813Z,18.20
2022-12-28T06:56:15.809Z,19.70
2022-12-28T06:57:15.888Z,19.80
2022-12-28T06:58:15.811Z,18.50
2022-12-28T06:59:15.772Z,19.60
2022-12-28T07:00:15.763Z,19.30
2022-12-28T07:01:15.928Z,18.60
2022-12-28T07:02:15.933Z,18.50
2022-12-28T07:03:15.735Z,19.20
2022-12-28T07:04:15.752Z,18.90
2022-12-28T07:05:15.706Z,19.20
2022-12-28T07:06:15.725Z,19.00
2022-12-28T07:07:15.676Z,20.30
2022-12-28T07:08:15.670Z,19.30
2022-12-28T07:09:15.667Z,20.60
2022-12-28T07:10:15.680Z,19.80
2022-12-28T07:11:15.636Z,21.30
2022-12-28T07:12:15.627Z,19.80
2022-12-28T07:13:15.643Z,19.50
2022-12-28T07:14:15.629Z,20.20
2022-12-28T07:15:15.596Z,20.60
2022-12-28T07:16:15.671Z,20.80
2022-12-28T07:17:15.566Z,21.50
2022-12-28T07:18:15.587Z,22.40
2022-12-28T07:19:15.579Z,21.40
2022-12-28T07:20:15.569Z,22.10
2022-12-28T07:21:15.549Z,22.30
2022-12-28T07:22:15.617Z,22.80
2022-12-28T07:23:15.497Z,22.50
2022-12-28T07:24:15.547Z,22.40
2022-12-28T07:25:15.475Z,23.10
2022-12-28T07:26:15.562Z,22.70
2022-12-28T07:27:15.452Z,23.50
2022-12-28T07:28:15.520Z,24.80
2022-12-28T07:29:15.431Z,24.30
2022-12-28T07:30:15.480Z,23.10
2022-12-28T07:31:15.547Z,23.70
2022-12-28T07:32:15.481Z,22.90
2022-12-28T07:33:15.399Z,24.60
2022-12-28T07:34:15.410Z,22.60
2022-12-28T07:35:15.377Z,24.00
2022-12-28T07:36:15.428Z,23.00
2022-12-28T07:37:15.382Z,25.00
2022-12-28T07:38:21.185Z,23.80
2022-12-28T07:39:15.323Z,22.80
2022-12-28T07:40:15.372Z,23.70
2022-12-28T07:41:15.322Z,24.10
2022-12-28T07:42:15.299Z,24.80
2022-12-28T07:43:15.319Z,24.10
2022-12-28T07:44:15.268Z,25.20
2022-12-28T07:45:15.265Z,23.50
2022-12-28T07:46:15.368Z,24.00
2022-12-28T07:47:15.237Z,23.50
2022-12-28T07:48:15.231Z,24.50
2022-12-28T07:49:15.220Z,24.70
2022-12-28T07:50:15.202Z,23.70
2022-12-28T07:51:15.242Z,24.60
2022-12-28T07:52:15.204Z,24.20
2022-12-28T07:53:21.815Z,24.00
2022-12-28T07:54:15.188Z,23.50
2022-12-28T07:55:15.142Z,24.30
2022-12-28T07:56:15.159Z,24.10
2022-12-28T07:57:15.122Z,24.20
2022-12-28T07:58:15.112Z,24.00
2022-12-28T07:59:15.112Z,25.20
2022-12-28T08:00:15.107Z,25.10
2022-12-28T08:01:15.272Z,24.20
2022-12-28T08:02:15.202Z,24.60
2022-12-28T08:03:15.135Z,26.20
2022-12-28T08:04:15.053Z,25.20
2022-12-28T08:05:15.080Z,24.70
2022-12-28T08:06:15.046Z,24.60
2022-12-28T08:07:15.009Z,24.50
2022-12-28T08:08:15.002Z,25.10
2022-12-28T08:09:14.989Z,25.00
2022-12-28T08:10:15.015Z,25.10
2022-12-28T08:11:15.004Z,24.60
2022-12-28T08:12:14.959Z,23.90
2022-12-28T08:13:14.970Z,24.60
2022-12-28T08:14:14.946Z,23.90
2022-12-28T08:15:14.923Z,24.00
2022-12-28T08:16:14.976Z,25.20
2022-12-28T08:17:19.077Z,24.80
2022-12-28T08:18:14.898Z,24.00
2022-12-28T08:19:14.875Z,23.40
2022-12-28T08:20:14.873Z,24.60
2022-12-28T08:21:14.891Z,25.00
2022-12-28T08:22:14.841Z,24.80
2022-12-28T08:23:14.844Z,24.50
2022-12-28T08:24:14.823Z,24.00
2022-12-28T08:25:14.808Z,24.60
2022-12-28T08:26:14.820Z,23.70
2022-12-28T08:27:14.787Z,25.40
2022-12-28T08:28:14.784Z,25.20
2022-12-28T08:29:14.793Z,24.30
2022-12-28T08:30:14.760Z,25.10
2022-12-28T08:31:14.878Z,25.60
2022-12-28T08:32:14.734Z,24.70
2022-12-28T08:33:14.720Z,24.10
2022-12-28T08:34:14.727Z,26.00
2022-12-28T08:35:14.702Z,24.40
2022-12-28T08:36:14.742Z,24.50
2022-12-28T08:37:14.695Z,24.90
2022-12-28T08:38:14.680Z,25.90
2022-12-28T08:39:14.681Z,23.90
2022-12-28T08:40:14.641Z,23.50
2022-12-28T08:41:14.694Z,24.60
2022-12-28T08:42:14.659Z,23.50
2022-12-28T08:43:14.607Z,23.90
2022-12-28T08:44:14.601Z,23.20
2022-12-28T08:45:14.589Z,23.70
2022-12-28T08:46:14.704Z,23.70
2022-12-28T08:47:14.691Z,23.60
2022-12-28T08:48:14.563Z,23.90
2022-12-28T08:49:14.550Z,22.60
2022-12-28T08:50:18.144Z,22.70
2022-12-28T08:51:14.555Z,22.20
2022-12-28T08:52:14.527Z,22.70
2022-12-28T08:53:14.500Z,22.70
2022-12-28T08:54:14.483Z,23.50
2022-12-28T08:55:14.472Z,23.80
2022-12-28T08:56:14.462Z,22.90
2022-12-28T08:57:14.494Z,23.00
2022-12-28T08:58:14.446Z,21.20
2022-12-28T08:59:14.440Z,21.60
2022-12-28T09:00:14.448Z,22.00
2022-12-28T09:01:14.533Z,21.70
2022-12-28T09:02:14.514Z,22.00
2022-12-28T09:03:14.460Z,22.30
2022-12-28T09:04:14.409Z,22.50
2022-12-28T09:05:14.366Z,21.60
2022-12-28T09:06:14.493Z,22.40
2022-12-28T09:07:14.396Z,22.00
2022-12-28T09:08:14.330Z,23.60
2022-12-28T09:09:14.336Z,22.20
2022-12-28T09:10:14.385Z,22.90
2022-12-28T09:11:14.302Z,21.80
2022-12-28T09:12:14.307Z,22.20
2022-12-28T09:13:14.276Z,21.70
2022-12-28T09:14:22.117Z,20.80
2022-12-28T09:15:14.256Z,21.10
2022-12-28T09:16:14.269Z,21.60
2022-12-28T09:17:14.280Z,20.70
2022-12-28T09:18:14.217Z,20.80
2022-12-28T09:19:14.226Z,22.10
2022-12-28T09:20:14.194Z,22.60
2022-12-28T09:21:14.197Z,21.90
2022-12-28T09:22:14.472Z,21.70
2022-12-28T09:23:14.162Z,20.90
2022-12-28T09:24:14.176Z,22.40
2022-12-28T09:25:14.197Z,21.00
2022-12-28T09:26:14.153Z,21.40
2022-12-28T09:27:14.157Z,21.50
2022-12-28T09:28:14.128Z,20.90
2022-12-28T09:29:14.096Z,19.50
2022-12-28T09:30:14.174Z,21.10
2022-12-28T09:31:14.115Z,20.50
2022-12-28T09:32:14.068Z,20.50
2022-12-28T09:33:14.075Z,20.10
2022-12-28T09:35:14.155Z,20.80
2022-12-28T09:36:14.034Z,20.90
2022-12-28T09:37:14.028Z,20.20
2022-12-28T09:38:13.993Z,20.80
2022-12-28T09:39:14.062Z,20.80
2022-12-28T09:40:13.989Z,21.00
2022-12-28T09:41:14.052Z,20.50
2022-12-28T09:42:13.959Z,21.00
2022-12-28T09:43:13.938Z,20.50
2022-12-28T09:44:13.943Z,19.90
2022-12-28T09:45:13.910Z,21.50
2022-12-28T09:46:13.995Z,20.20
2022-12-28T09:47:13.910Z,20.10
2022-12-28T09:48:13.887Z,19.30
2022-12-28T09:49:13.869Z,19.70
2022-12-28T09:50:13.900Z,19.20
2022-12-28T09:51:13.876Z,19.40
2022-12-28T09:52:13.882Z,21.00
2022-12-28T09:53:13.823Z,19.00
2022-12-28T09:54:13.822Z,19.10
2022-12-28T09:55:13.800Z,20.20
2022-12-28T09:56:13.853Z,18.70
2022-12-28T09:57:13.792Z,19.20
2022-12-28T09:58:13.775Z,19.80
2022-12-28T09:59:13.759Z,20.20
2022-12-28T10:00:13.774Z,17.70
2022-12-28T10:01:13.855Z,17.50
2022-12-28T10:02:13.802Z,18.70
2022-12-28T10:03:13.780Z,19.70
2022-12-28T10:04:13.705Z,18.40
2022-12-28T10:05:13.727Z,17.70
2022-12-28T10:06:13.723Z,18.30
2022-12-28T10:07:13.686Z,16.90
2022-12-28T10:08:13.683Z,18.00
2022-12-28T10:09:13.643Z,18.60
2022-12-28T10:10:13.688Z,18.30
2022-12-28T10:11:13.650Z,18.10
2022-12-28T10:12:13.643Z,18.20
2022-12-28T10:13:45.652Z,19.10
2022-12-28T10:14:13.639Z,17.70
2022-12-28T10:15:13.628Z,18.00
2022-12-28T10:16:13.651Z,19.50
2022-12-28T10:17:13.625Z,18.10
2022-12-28T10:18:13.575Z,16.70
2022-12-28T10:19:13.548Z,17.70
2022-12-28T10:20:13.532Z,16.40
2022-12-28T10:21:13.608Z,18.00
2022-12-28T10:22:13.505Z,18.50
2022-12-28T10:23:13.492Z,17.80
2022-12-28T10:25:13.484Z,17.40
2022-12-28T10:26:13.506Z,16.70
2022-12-28T10:27:13.455Z,17.70
2022-12-28T10:28:13.441Z,18.00
2022-12-28T10:29:13.429Z,17.80
2022-12-28T10:30:13.416Z,17.50
2022-12-28T10:31:13.453Z,17.70
2022-12-28T10:32:13.392Z,18.00
2022-12-28T10:33:14.033Z,18.60
2022-12-28T10:34:13.415Z,17.90
2022-12-28T10:35:13.363Z,17.70
2022-12-28T10:36:13.426Z,18.90
2022-12-28T10:37:13.999Z,18.30
2022-12-28T10:38:13.329Z,19.10
2022-12-28T10:39:13.324Z,19.00
2022-12-28T10:40:13.376Z,18.90
2022-12-28T10:41:13.321Z,19.10
2022-12-28T10:42:13.303Z,19.70
2022-12-28T10:43:13.278Z,19.60
2022-12-28T10:44:38.272Z,19.30
2022-12-28T10:45:13.261Z,19.70
2022-12-28T10:46:13.256Z,20.50
2022-12-28T10:47:13.234Z,20.60
2022-12-28T10:48:13.231Z,20.60
2022-12-28T10:49:15.694Z,19.50
2022-12-28T10:50:37.134Z,20.40
2022-12-28T10:51:13.391Z,19.70
2022-12-28T10:52:13.175Z,20.50
2022-12-28T10:53:13.159Z,18.80
2022-12-28T10:54:13.143Z,18.70
2022-12-28T10:55:13.139Z,20.50
2022-12-28T10:56:13.380Z,20.30
2022-12-28T10:57:13.114Z,18.80
2022-12-28T10:58:30.641Z,19.30
2022-12-28T10:59:13.312Z,19.20
2022-12-28T11:00:13.085Z,19.00
2022-12-28T11:01:13.272Z,18.30
2022-12-28T11:02:13.264Z,18.20
2022-12-28T11:03:13.091Z,18.60
2022-12-28T11:04:13.038Z,17.60
2022-12-28T11:05:13.032Z,17.50
2022-12-28T11:06:13.041Z,17.30
2022-12-28T11:07:13.036Z,16.70
2022-12-28T11:08:13.100Z,16.50
2022-12-28T11:09:13.007Z,16.90
2022-12-28T11:10:12.965Z,16.80
2022-12-28T11:11:12.983Z,16.40
2022-12-28T11:12:12.941Z,16.70
2022-12-28T11:13:15.815Z,16.90
2022-12-28T11:14:12.944Z,16.00
2022-12-28T11:15:12.946Z,15.20
2022-12-28T11:16:12.950Z,15.50
2022-12-28T11:17:12.896Z,16.00
2022-12-28T11:18:12.880Z,16.10
2022-12-28T11:19:12.881Z,15.00
2022-12-28T11:20:12.899Z,15.50
2022-12-28T11:21:12.847Z,15.00
2022-12-28T11:22:12.861Z,15.50
2022-12-28T11:23:12.825Z,18.70
2022-12-28T11:24:12.811Z,16.50
2022-12-28T11:25:12.838Z,16.30
2022-12-28T11:26:12.796Z,16.30
2022-12-28T11:27:12.802Z,15.20
2022-12-28T11:28:12.764Z,14.30
2022-12-28T11:29:12.759Z,14.90
2022-12-28T11:30:17.279Z,14.20
2022-12-28T11:31:12.779Z,14.40
2022-12-28T11:32:12.743Z,16.40
2022-12-28T11:33:12.715Z,15.80
2022-12-28T11:34:12.695Z,12.60
2022-12-28T11:35:12.711Z,12.90
2022-12-28T11:36:12.720Z,11.40
2022-12-28T11:37:12.680Z,12.20
2022-12-28T11:38:12.680Z,12.00
2022-12-28T11:39:12.692Z,12.80
2022-12-28T11:40:12.670Z,12.20
2022-12-28T11:41:12.645Z,11.10
2022-12-28T11:42:38.564Z,12.00
2022-12-28T11:43:12.622Z,12.40
2022-12-28T11:44:12.614Z,12.10
2022-12-28T11:45:12.574Z,11.80
2022-12-28T11:46:12.625Z,13.70
2022-12-28T11:47:12.558Z,11.80
2022-12-28T11:48:12.545Z,12.50
2022-12-28T11:49:12.527Z,10.90
2022-12-28T11:50:12.523Z,10.50
2022-12-28T11:51:12.508Z,11.60
2022-12-28T11:52:12.530Z,11.00
2022-12-28T11:53:14.124Z,11.20
2022-12-28T11:54:12.476Z,10.20
2022-12-28T11:55:12.470Z,10.80
2022-12-28T11:56:12.469Z,11.60
2022-12-28T11:57:12.480Z,11.40
2022-12-28T11:58:12.451Z,12.00
2022-12-28T11:59:12.419Z,12.80
2022-12-28T12:00:15.867Z,12.10
2022-12-28T12:01:12.443Z,11.40
2022-12-28T12:02:12.459Z,11.70
2022-12-28T12:03:12.430Z,12.20
2022-12-28T12:04:12.366Z,11.50
2022-12-28T12:05:12.355Z,11.60
2022-12-28T12:06:12.366Z,13.40
2022-12-28T12:07:12.337Z,12.10
2022-12-28T12:08:12.322Z,11.70
2022-12-28T12:09:12.315Z,11.50
2022-12-28T12:10:12.297Z,11.30
2022-12-28T12:11:12.323Z,11.70
2022-12-28T12:12:17.294Z,11.70
2022-12-28T12:13:12.276Z,12.50
2022-12-28T12:14:12.252Z,12.50
2022-12-28T12:15:12.254Z,13.40
2022-12-28T12:16:12.261Z,11.60
2022-12-28T12:17:12.228Z,12.90
2022-12-28T12:18:12.209Z,12.00
2022-12-28T12:19:12.212Z,13.20
2022-12-28T12:20:12.190Z,12.30
2022-12-28T12:21:15.973Z,12.00
2022-12-28T12:22:12.174Z,12.00
2022-12-28T12:23:12.165Z,10.90
2022-12-28T12:24:12.145Z,10.30
2022-12-28T12:25:12.132Z,11.40
2022-12-28T12:26:12.144Z,10.70
2022-12-28T12:27:13.664Z,11.00
2022-12-28T12:28:12.097Z,11.00
2022-12-28T12:29:12.090Z,12.20
2022-12-28T12:30:12.223Z,10.90
2022-12-28T12:31:12.135Z,10.90
2022-12-28T12:32:12.060Z,10.80
2022-12-28T12:33:12.057Z,10.50
2022-12-28T12:34:17.565Z,11.30
2022-12-28T12:35:12.130Z,10.90
2022-12-28T12:36:12.030Z,13.00
2022-12-28T12:37:11.998Z,12.80
2022-12-28T12:38:11.990Z,12.20
2022-12-28T12:39:11.996Z,10.50
2022-12-28T12:40:12.090Z,11.20
2022-12-28T12:41:11.989Z,13.10
2022-12-28T12:42:11.961Z,12.10
2022-12-28T12:43:11.935Z,12.60
2022-12-28T12:44:11.919Z,11.60
2022-12-28T12:45:11.913Z,11.70
2022-12-28T12:46:11.949Z,10.90
2022-12-28T12:47:11.888Z,11.60
2022-12-28T12:48:11.885Z,11.80
2022-12-28T12:49:11.866Z,12.50
2022-12-28T12:50:11.955Z,12.30
2022-12-28T12:51:11.873Z,11.70
2022-12-28T12:52:11.831Z,12.10
2022-12-28T12:53:11.832Z,12.10
2022-12-28T12:54:11.817Z,12.40
2022-12-28T12:55:11.803Z,12.80
2022-12-28T12:56:11.836Z,11.70
2022-12-28T12:57:11.770Z,11.40
2022-12-28T12:58:11.769Z,11.70
2022-12-28T12:59:11.752Z,11.80
2022-12-28T13:00:11.829Z,12.30
2022-12-28T13:01:11.909Z,11.40
2022-12-28T13:02:11.946Z,11.90
2022-12-28T13:03:11.797Z,12.30
2022-12-28T13:04:11.710Z,11.80